createdAt,value
2022-10-11T00:00:23.889Z,7.9
2022-10-11T00:02:29.643Z,7.9
2022-10-11T00:04:35.453Z,7.8
2022-10-11T00:08:50.076Z,7.8
2022-10-11T00:10:55.853Z,7.8
2022-10-11T00:13:01.635Z,7.8
2022-10-11T00:15:07.400Z,7.8
2022-10-11T00:17:13.170Z,7.7
2022-10-11T00:19:18.959Z,7.8
2022-10-11T00:21:27.822Z,7.7
2022-10-11T00:23:33.602Z,7.7
2022-10-11T00:25:39.398Z,7.7
2022-10-11T00:27:45.167Z,7.7
2022-10-11T00:29:50.956Z,7.7
2022-10-11T00:31:56.753Z,7.7
2022-10-11T00:34:02.528Z,7.7
2022-10-11T00:36:11.397Z,7.7
2022-10-11T00:38:17.144Z,7.7
2022-10-11T00:41:27.352Z,7.7
2022-10-11T00:43:33.137Z,7.6
2022-10-11T00:45:38.924Z,7.7
2022-10-11T00:47:44.685Z,7.7
2022-10-11T00:49:53.553Z,7.7
2022-10-11T00:51:59.310Z,7.6
2022-10-11T00:56:10.898Z,7.6
2022-10-11T00:58:16.646Z,7.6
2022-10-11T01:00:22.445Z,7.5
2022-10-11T01:02:28.201Z,7.5
2022-10-11T01:04:37.056Z,7.5
2022-10-11T01:08:48.623Z,7.5
2022-10-11T01:10:54.376Z,7.4
2022-10-11T01:13:00.198Z,7.4
2022-10-11T01:15:05.945Z,7.4
2022-10-11T01:17:11.695Z,7.4
2022-10-11T01:19:20.555Z,7.4
2022-10-11T01:21:26.326Z,7.4
2022-10-11T01:23:32.118Z,7.4
2022-10-11T01:25:37.893Z,7.4
2022-10-11T01:27:43.658Z,7.3
2022-10-11T01:29:49.419Z,7.3
2022-10-11T01:31:55.198Z,7.3
2022-10-11T01:34:04.037Z,7.3
2022-10-11T01:36:09.814Z,7.3
2022-10-11T01:38:15.572Z,7.3
2022-10-11T01:39:19.993Z,7.2
2022-10-11T01:41:25.765Z,7.3
2022-10-11T01:43:31.557Z,7.2
2022-10-11T01:45:37.424Z,7.3
2022-10-11T01:47:46.151Z,7.2
2022-10-11T01:49:51.914Z,7.2
2022-10-11T01:51:57.685Z,7.2
2022-10-11T01:54:03.461Z,7.1
2022-10-11T01:56:09.223Z,7.2
2022-10-11T01:58:14.982Z,7.2
2022-10-11T02:00:20.759Z,7.2
2022-10-11T02:02:29.579Z,7.2
2022-10-11T02:06:41.116Z,7.2
2022-10-11T02:08:46.870Z,7.2
2022-10-11T02:12:58.390Z,7.2
2022-10-11T02:17:12.953Z,7.2
2022-10-11T02:19:18.715Z,7.3
2022-10-11T02:21:24.494Z,7.2
2022-10-11T02:23:30.267Z,7.2
2022-10-11T02:25:35.987Z,7.2
2022-10-11T02:27:41.745Z,7.2
2022-10-11T02:29:47.512Z,7.2
2022-10-11T02:31:56.363Z,7.3
2022-10-11T02:34:03.723Z,7.3
2022-10-11T02:36:09.442Z,7.3
2022-10-11T02:38:33.437Z,7.2
2022-10-11T02:40:39.201Z,7.2
2022-10-11T02:42:44.966Z,7.2
2022-10-11T02:44:53.810Z,7.2
2022-10-11T02:46:59.570Z,7.1
2022-10-11T02:49:05.329Z,7.1
2022-10-11T02:57:28.363Z,7.1
2022-10-11T03:01:43.050Z,7.1
2022-10-11T03:03:48.716Z,7.1
2022-10-11T03:05:54.461Z,7.1
2022-10-11T03:08:00.216Z,7.1
2022-10-11T03:10:05.984Z,7
2022-10-11T03:14:20.566Z,7.1
2022-10-11T03:16:26.325Z,7.1
2022-10-11T03:18:32.085Z,7.1
2022-10-11T03:20:37.852Z,7.1
2022-10-11T03:22:43.606Z,7.1
2022-10-11T03:24:49.370Z,7.1
2022-10-11T03:26:55.126Z,7.2
2022-10-11T03:29:03.969Z,7.2
2022-10-11T03:31:09.718Z,7.2
2022-10-11T03:33:15.481Z,7.2
2022-10-11T03:38:31.424Z,7.2
2022-10-11T03:42:46.027Z,7.2
2022-10-11T03:44:51.775Z,7.2
2022-10-11T03:46:57.532Z,7.2
2022-10-11T03:49:03.299Z,7.2
2022-10-11T03:51:09.101Z,7.2
2022-10-11T03:53:14.818Z,7.2
2022-10-11T03:55:20.600Z,7.2
2022-10-11T03:57:29.442Z,7.3
2022-10-11T03:59:35.202Z,7.2
2022-10-11T04:01:41.024Z,7.3
2022-10-11T04:03:46.723Z,7.3
2022-10-11T04:05:52.477Z,7.3
2022-10-11T04:07:58.242Z,7.2
2022-10-11T04:10:04.002Z,7.3
2022-10-11T04:12:12.878Z,7.2
2022-10-11T04:14:18.768Z,7.2
2022-10-11T04:18:30.162Z,7.1
2022-10-11T04:26:56.289Z,7
2022-10-11T04:29:02.028Z,7
2022-10-11T04:31:07.797Z,7
2022-10-11T04:32:12.205Z,7
2022-10-11T04:34:17.956Z,7
2022-10-11T04:36:23.712Z,7
2022-10-11T04:38:29.466Z,7
2022-10-11T04:40:38.327Z,6.9
2022-10-11T04:42:44.087Z,6.9
2022-10-11T04:44:50.010Z,6.9
2022-10-11T04:46:55.600Z,7
2022-10-11T04:49:01.386Z,7
2022-10-11T04:51:07.128Z,7
2022-10-11T04:53:12.888Z,7
2022-10-11T04:55:21.736Z,7.1
2022-10-11T04:59:33.221Z,7.1
2022-10-11T05:01:39.038Z,7.1
2022-10-11T05:03:44.726Z,7.1
2022-10-11T05:05:50.474Z,7
2022-10-11T05:07:56.246Z,7.1
2022-10-11T05:10:05.089Z,7.1
2022-10-11T05:12:10.828Z,7
2022-10-11T05:14:16.575Z,7
2022-10-11T05:16:22.329Z,7
2022-10-11T05:18:28.079Z,7
2022-10-11T05:20:33.829Z,7
2022-10-11T05:22:39.580Z,7
2022-10-11T05:24:48.421Z,7
2022-10-11T05:29:00.011Z,7
2022-10-11T05:32:10.095Z,7
2022-10-11T05:34:15.864Z,7
2022-10-11T05:36:21.616Z,7
2022-10-11T05:38:30.451Z,7
2022-10-11T05:40:36.218Z,7
2022-10-11T05:42:41.969Z,7
2022-10-11T05:44:47.716Z,7
2022-10-11T05:46:53.482Z,7
2022-10-11T05:48:59.227Z,7
2022-10-11T05:51:05.009Z,7
2022-10-11T05:53:13.861Z,7.1
2022-10-11T05:55:19.609Z,7.1
2022-10-11T05:57:25.381Z,7.1
2022-10-11T05:59:31.125Z,7.1
2022-10-11T06:01:36.922Z,7.1
2022-10-11T06:03:42.642Z,7.2
2022-10-11T06:05:49.738Z,7.3
2022-10-11T06:07:57.241Z,7.2
2022-10-11T06:10:02.996Z,7.3
2022-10-11T06:12:08.773Z,7.4
2022-10-11T06:14:14.506Z,7.4
2022-10-11T06:16:20.299Z,7.4
2022-10-11T06:20:31.805Z,7.6
2022-10-11T06:22:40.638Z,7.7
2022-10-11T06:24:46.401Z,7.7
2022-10-11T06:26:52.176Z,7.8
2022-10-11T06:29:23.720Z,8
2022-10-11T06:31:29.487Z,8
2022-10-11T06:33:35.247Z,8.1
2022-10-11T06:35:44.111Z,8.2
2022-10-11T06:37:49.879Z,8.2
2022-10-11T06:39:55.647Z,8.3
2022-10-11T06:42:01.559Z,8.4
2022-10-11T06:44:10.740Z,8.7
2022-10-11T06:46:12.975Z,8.8
2022-10-11T06:48:18.768Z,8.9
2022-10-11T06:50:54.337Z,9.2
2022-10-11T06:52:33.392Z,9.4
2022-10-11T06:54:44.569Z,9.5
2022-10-11T06:56:44.951Z,9.6
2022-10-11T06:58:50.755Z,9.6
2022-10-11T07:00:56.584Z,9.8
2022-10-11T07:03:02.368Z,9.9
2022-10-11T07:05:11.217Z,10.9
2022-10-11T07:07:17.037Z,11.1
2022-10-11T07:09:22.836Z,11.3
2022-10-11T07:11:28.657Z,11.2
2022-10-11T07:13:34.507Z,10.9
2022-10-11T07:15:40.349Z,10.8
2022-10-11T07:17:46.156Z,10.6
2022-10-11T07:19:55.051Z,10.6
2022-10-11T07:22:00.896Z,10.6
2022-10-11T07:24:06.752Z,10.8
2022-10-11T07:25:11.203Z,11.6
2022-10-11T07:27:17.057Z,11.9
2022-10-11T07:29:22.894Z,12.1
2022-10-11T07:31:28.771Z,12
2022-10-11T07:33:37.683Z,12.3
2022-10-11T07:35:47.473Z,12.4
2022-10-11T07:37:49.415Z,12.4
2022-10-11T07:39:55.190Z,12.3
2022-10-11T07:42:01.039Z,12
2022-10-11T07:44:06.802Z,12
2022-10-11T07:46:12.661Z,12.3
2022-10-11T07:48:21.740Z,12.5
2022-10-11T07:50:27.388Z,12.5
2022-10-11T07:52:33.255Z,12.5
2022-10-11T07:54:39.115Z,12.8
2022-10-11T07:58:50.760Z,13.6
2022-10-11T08:00:56.554Z,14.3
2022-10-11T08:07:16.859Z,15.1
2022-10-11T08:09:22.676Z,15
2022-10-11T08:11:28.416Z,14.9
2022-10-11T08:13:34.217Z,15.2
2022-10-11T08:15:39.994Z,15.4
2022-10-11T08:17:48.781Z,14.7
2022-10-11T08:19:54.579Z,14.3
2022-10-11T08:22:00.378Z,14.1
2022-10-11T08:23:04.751Z,14
2022-10-11T08:25:10.554Z,13.9
2022-10-11T08:27:16.336Z,14.2
2022-10-11T08:29:22.157Z,14.3
2022-10-11T08:31:30.930Z,14.1
2022-10-11T08:33:36.740Z,13.9
2022-10-11T08:35:44.128Z,13.7
2022-10-11T08:37:49.885Z,13.5
2022-10-11T08:39:55.676Z,13.9
2022-10-11T08:42:01.506Z,14.3
2022-10-11T08:44:07.271Z,14.9
2022-10-11T08:46:16.047Z,14.6
2022-10-11T08:48:21.821Z,14.4
2022-10-11T08:50:27.651Z,14.4
2022-10-11T08:52:33.420Z,15.1
2022-10-11T08:54:39.233Z,15.6
2022-10-11T08:56:45.034Z,16.2
2022-10-11T08:58:50.818Z,17.1
2022-10-11T09:00:59.582Z,18
2022-10-11T09:03:08.951Z,18.4
2022-10-11T09:05:11.358Z,19.6
2022-10-11T09:07:16.982Z,20.6
2022-10-11T09:09:22.805Z,20.7
2022-10-11T09:11:28.598Z,20.2
2022-10-11T09:13:34.408Z,20.6
2022-10-11T09:15:43.185Z,20.9
2022-10-11T09:17:48.986Z,20.8
2022-10-11T09:19:54.796Z,20.9
2022-10-11T09:20:59.172Z,21.4
2022-10-11T09:23:04.975Z,21.7
2022-10-11T09:25:10.806Z,21.1
2022-10-11T09:27:16.613Z,20.6
2022-10-11T09:29:25.364Z,20.9
2022-10-11T09:31:31.218Z,21
2022-10-11T09:33:36.999Z,21.3
2022-10-11T09:35:42.807Z,21.3
2022-10-11T09:37:48.615Z,21.4
2022-10-11T09:39:54.394Z,21.5
2022-10-11T09:42:00.221Z,21.5
2022-10-11T09:44:08.996Z,21.3
2022-10-11T09:46:14.777Z,21.4
2022-10-11T09:48:20.611Z,21.7
2022-10-11T09:50:26.429Z,22.2
2022-10-11T09:52:32.238Z,21.9
2022-10-11T09:54:38.022Z,21
2022-10-11T09:56:43.843Z,21.6
2022-10-11T09:58:52.604Z,22.5
2022-10-11T10:00:58.393Z,22.7
2022-10-11T10:03:04.200Z,22.5
2022-10-11T10:05:10.021Z,21.8
2022-10-11T10:07:15.804Z,21.9
2022-10-11T10:09:21.618Z,21.8
2022-10-11T10:15:41.961Z,22
2022-10-11T10:17:47.767Z,22.1
2022-10-11T10:20:19.007Z,22.1
2022-10-11T10:22:24.753Z,21.9
2022-10-11T10:24:30.575Z,19.9
2022-10-11T10:26:39.324Z,17.1
2022-10-11T10:30:50.975Z,16.6
2022-10-11T10:37:08.341Z,15.8
2022-10-11T10:39:14.163Z,16
2022-10-11T10:41:22.945Z,16.1
2022-10-11T10:43:28.743Z,16.2
2022-10-11T10:45:34.564Z,16.2
2022-10-11T10:47:40.364Z,16.2
2022-10-11T10:49:54.007Z,16.2
2022-10-11T10:51:51.983Z,16.4
2022-10-11T10:53:57.781Z,16.4
2022-10-11T10:58:16.353Z,16.6
2022-10-11T11:00:18.179Z,16.5
2022-10-11T11:04:29.806Z,16.5
2022-10-11T11:06:36.626Z,16.5
2022-10-11T11:08:41.410Z,16.4
2022-10-11T11:10:50.197Z,16.1
2022-10-11T11:12:55.989Z,16.1
2022-10-11T11:15:01.820Z,16.4
2022-10-11T11:18:12.005Z,16.6
2022-10-11T11:20:17.829Z,16.1
2022-10-11T11:22:23.645Z,16.3
2022-10-11T11:24:32.422Z,16.3
2022-10-11T11:26:41.966Z,16.1
2022-10-11T11:30:49.870Z,16.5
2022-10-11T11:32:55.684Z,16.6
2022-10-11T11:35:01.500Z,17
2022-10-11T11:39:16.151Z,17
2022-10-11T11:41:21.892Z,16.9
2022-10-11T11:43:27.722Z,17
2022-10-11T11:45:33.534Z,16.8
2022-10-11T11:47:39.354Z,17
2022-10-11T11:49:45.229Z,17
2022-10-11T11:51:50.949Z,16.8
2022-10-11T11:53:59.740Z,16.2
2022-10-11T11:56:05.540Z,16.1
2022-10-11T11:58:11.368Z,16
2022-10-11T12:00:17.162Z,15.9
2022-10-11T12:02:23.039Z,15.8
2022-10-11T12:04:28.787Z,15.7
2022-10-11T12:06:35.932Z,15.7
2022-10-11T12:08:43.409Z,15.9
2022-10-11T12:10:49.230Z,15.9
2022-10-11T12:12:55.026Z,16
2022-10-11T12:13:59.416Z,16
2022-10-11T12:16:05.248Z,15.9
2022-10-11T12:18:11.062Z,15.7
2022-10-11T12:22:25.635Z,15.5
2022-10-11T12:28:43.172Z,15.4
2022-10-11T12:30:48.889Z,15.8
2022-10-11T12:32:54.695Z,16.5
2022-10-11T12:35:00.532Z,16.9
2022-10-11T12:41:20.919Z,17.5
2022-10-11T12:45:32.522Z,17.6
2022-10-11T12:47:38.346Z,17.6
2022-10-11T12:49:44.128Z,17.5
2022-10-11T12:58:10.331Z,18.2
2022-10-11T13:00:16.139Z,18
2022-10-11T13:02:21.968Z,17.8
2022-10-11T13:04:27.757Z,17.7
2022-10-11T13:06:36.554Z,18
2022-10-11T13:08:42.374Z,17.8
2022-10-11T13:10:48.181Z,17.4
2022-10-11T13:11:52.584Z,17.4
2022-10-11T13:13:58.415Z,17.6
2022-10-11T13:16:04.487Z,17.9
2022-10-11T13:18:10.034Z,18
2022-10-11T13:20:18.852Z,18.1
2022-10-11T13:22:24.656Z,18.1
2022-10-11T13:24:30.460Z,17.9
2022-10-11T13:26:36.284Z,17.9
2022-10-11T13:28:42.119Z,17.8
2022-10-11T13:32:53.745Z,17.4
2022-10-11T13:35:02.526Z,17.6
2022-10-11T13:39:14.169Z,17.8
2022-10-11T13:43:25.760Z,17.5
2022-10-11T13:45:31.601Z,17.7
2022-10-11T13:47:37.431Z,17.6
2022-10-11T13:49:46.175Z,17.7
2022-10-11T13:51:51.973Z,17.7
2022-10-11T13:53:57.769Z,18
2022-10-11T13:56:03.840Z,18.3
2022-10-11T13:58:09.401Z,18.1
2022-10-11T14:00:15.225Z,18.2
2022-10-11T14:02:21.012Z,18.2
2022-10-11T14:04:30.232Z,18.3
2022-10-11T14:06:35.610Z,18.4
2022-10-11T14:08:41.438Z,18.3
2022-10-11T14:11:12.677Z,18.4
2022-10-11T14:13:18.486Z,18.4
2022-10-11T14:17:33.092Z,18.2
2022-10-11T14:19:38.952Z,18.1
2022-10-11T14:23:50.545Z,18
2022-10-11T14:25:56.356Z,17.9
2022-10-11T14:28:02.212Z,17.7
2022-10-11T14:30:25.619Z,17.8
2022-10-11T14:32:16.768Z,17.8
2022-10-11T14:34:22.598Z,17.5
2022-10-11T14:36:28.406Z,17.3
2022-10-11T14:38:35.832Z,17.4
2022-10-11T14:40:41.595Z,17.4
2022-10-11T14:42:47.390Z,17.3
2022-10-11T14:44:53.212Z,17.3
2022-10-11T14:47:01.997Z,17.3
2022-10-11T14:49:07.840Z,17.3
2022-10-11T14:51:13.638Z,17.3
2022-10-11T14:53:19.457Z,17.1
2022-10-11T14:55:25.240Z,17
2022-10-11T14:57:31.051Z,17
2022-10-11T14:59:36.909Z,16.7
2022-10-11T15:01:45.749Z,16.6
2022-10-11T15:03:51.456Z,16.4
2022-10-11T15:05:57.263Z,16.2
2022-10-11T15:07:01.672Z,16.2
2022-10-11T15:09:07.503Z,16.3
2022-10-11T15:11:13.323Z,16.1
2022-10-11T15:13:19.103Z,16.1
2022-10-11T15:15:27.883Z,16.2
2022-10-11T15:17:33.702Z,16.2
2022-10-11T15:19:39.528Z,16.2
2022-10-11T15:25:56.953Z,16.8
2022-10-11T15:28:02.778Z,16.8
2022-10-11T15:30:11.579Z,16.7
2022-10-11T15:32:17.363Z,16.5
2022-10-11T15:34:23.189Z,16.3
2022-10-11T15:36:28.998Z,16
2022-10-11T15:42:46.446Z,15.7
2022-10-11T15:44:55.246Z,15.7
2022-10-11T15:47:01.045Z,15.7
2022-10-11T15:49:06.898Z,15.6
2022-10-11T15:51:12.690Z,15.6
2022-10-11T15:53:18.497Z,15.5
2022-10-11T15:57:30.154Z,15.4
2022-10-11T15:59:38.913Z,15.3
2022-10-11T16:01:44.842Z,15.2
2022-10-11T16:03:50.550Z,15.2
2022-10-11T16:04:54.963Z,15.1
2022-10-11T16:07:00.774Z,15.1
2022-10-11T16:09:06.603Z,15.1
2022-10-11T16:13:21.224Z,15
2022-10-11T16:17:32.834Z,14.9
2022-10-11T16:19:38.655Z,14.8
2022-10-11T16:21:44.457Z,14.7
2022-10-11T16:23:50.255Z,14.6
2022-10-11T16:25:56.073Z,14.5
2022-10-11T16:28:04.883Z,14.4
2022-10-11T16:30:10.705Z,14.4
2022-10-11T16:32:16.487Z,14.4
2022-10-11T16:34:22.303Z,14.3
2022-10-11T16:36:28.122Z,14.3
2022-10-11T16:38:33.909Z,14.1
2022-10-11T16:40:39.718Z,14
2022-10-11T16:42:48.472Z,14
2022-10-11T16:47:00.089Z,13.9
2022-10-11T16:49:05.901Z,13.9
2022-10-11T16:51:11.703Z,13.8
2022-10-11T16:53:17.512Z,13.8
2022-10-11T16:55:23.297Z,13.7
2022-10-11T16:57:32.083Z,13.6
2022-10-11T16:59:37.862Z,13.6
2022-10-11T17:01:43.663Z,13.5
2022-10-11T17:02:48.055Z,13.6
2022-10-11T17:04:53.873Z,13.5
2022-10-11T17:06:59.660Z,13.5
2022-10-11T17:09:05.496Z,13.5
2022-10-11T17:13:20.049Z,13.5
2022-10-11T17:15:25.851Z,13.5
2022-10-11T17:17:31.647Z,13.5
2022-10-11T17:19:41.344Z,13.6
2022-10-11T17:21:43.264Z,13.6
2022-10-11T17:23:49.049Z,13.7
2022-10-11T17:25:57.812Z,13.7
2022-10-11T17:28:03.605Z,13.6
2022-10-11T17:30:09.415Z,13.6
2022-10-11T17:32:15.217Z,13.6
2022-10-11T17:34:21.011Z,13.6
2022-10-11T17:36:26.810Z,13.6
2022-10-11T17:38:32.592Z,13.6
2022-10-11T17:40:41.385Z,13.5
2022-10-11T17:42:47.165Z,13.5
2022-10-11T17:44:52.941Z,13.4
2022-10-11T17:46:58.755Z,13.3
2022-10-11T17:49:04.569Z,13.3
2022-10-11T17:51:10.363Z,13.2
2022-10-11T17:53:16.164Z,13.2
2022-10-11T17:57:30.758Z,13.1
2022-10-11T17:59:36.543Z,13.1
2022-10-11T18:02:07.893Z,13.1
2022-10-11T18:04:13.692Z,13
2022-10-11T18:06:19.482Z,13
2022-10-11T18:08:28.272Z,12.9
2022-10-11T18:10:34.083Z,12.8
2022-10-11T18:12:39.868Z,12.8
2022-10-11T18:14:45.683Z,12.7
2022-10-11T18:16:51.465Z,12.7
2022-10-11T18:18:57.269Z,12.7
2022-10-11T18:21:03.080Z,12.7
2022-10-11T18:23:11.859Z,12.5
2022-10-11T18:25:17.648Z,12.4
2022-10-11T18:27:23.422Z,12.3
2022-10-11T18:29:29.222Z,12.3
2022-10-11T18:31:35.019Z,12.3
2022-10-11T18:33:40.814Z,12.2
2022-10-11T18:35:46.604Z,12.1
2022-10-11T18:37:58.721Z,12.1
2022-10-11T18:40:01.153Z,12.1
2022-10-11T18:42:06.935Z,12
2022-10-11T18:44:12.727Z,11.9
2022-10-11T18:46:18.485Z,11.9
2022-10-11T18:48:24.297Z,11.8
2022-10-11T18:52:42.462Z,11.5
2022-10-11T18:54:44.597Z,11.5
2022-10-11T18:56:50.356Z,11.4
2022-10-11T18:57:54.730Z,11.4
2022-10-11T19:00:04.085Z,11.4
2022-10-11T19:02:06.280Z,11.3
2022-10-11T19:04:12.173Z,11.3
2022-10-11T19:06:21.017Z,11.2
2022-10-11T19:08:26.813Z,11.2
2022-10-11T19:10:32.563Z,11.1
2022-10-11T19:12:38.332Z,11.1
2022-10-11T19:14:44.106Z,11
2022-10-11T19:16:49.875Z,11
2022-10-11T19:18:55.738Z,10.9
2022-10-11T19:23:10.413Z,10.9
2022-10-11T19:25:16.285Z,10.8
2022-10-11T19:27:22.157Z,10.7
2022-10-11T19:29:28.026Z,10.6
2022-10-11T19:31:33.878Z,10.6
2022-10-11T19:33:39.749Z,10.5
2022-10-11T19:35:48.482Z,10.4
2022-10-11T19:37:54.256Z,10.4
2022-10-11T19:39:59.993Z,10.4
2022-10-11T19:42:05.856Z,10.3
2022-10-11T19:44:11.714Z,10.3
2022-10-11T19:46:27.271Z,10.3
2022-10-11T19:48:23.445Z,10.3
2022-10-11T19:50:32.374Z,10.2
2022-10-11T19:52:42.714Z,10.2
2022-10-11T19:54:44.071Z,10.1
2022-10-11T20:00:00.253Z,10.1
2022-10-11T20:02:06.075Z,10
2022-10-11T20:12:42.352Z,9.7
2022-10-11T20:14:44.255Z,9.7
2022-10-11T20:16:50.140Z,9.7
2022-10-11T20:25:16.531Z,9.6
2022-10-11T20:27:22.370Z,9.5
2022-10-11T20:29:28.199Z,9.5
2022-10-11T20:31:34.056Z,9.6
2022-10-11T20:33:42.969Z,9.6
2022-10-11T20:35:48.812Z,9.6
2022-10-11T20:40:00.495Z,9.5
2022-10-11T20:42:07.914Z,9.4
2022-10-11T20:44:13.730Z,9.4
2022-10-11T20:46:19.529Z,9.3
2022-10-11T20:48:28.440Z,9.2
2022-10-11T20:50:34.282Z,9.2
2022-10-11T20:52:40.104Z,9.2
2022-10-11T20:53:44.552Z,9.2
2022-10-11T20:55:50.361Z,9.2
2022-10-11T20:57:56.184Z,9.2
2022-10-11T21:00:02.048Z,9.2
2022-10-11T21:02:14.306Z,9.1
2022-10-11T21:04:16.763Z,9.1
2022-10-11T21:10:34.204Z,9
2022-10-11T21:12:40.034Z,8.9
2022-10-11T21:14:45.867Z,8.9
2022-10-11T21:16:54.781Z,8.8
2022-10-11T21:19:00.602Z,8.8
2022-10-11T21:21:06.414Z,8.8
2022-10-11T21:23:12.235Z,8.7
2022-10-11T21:29:29.667Z,8.7
2022-10-11T21:31:38.559Z,8.6
2022-10-11T21:33:44.351Z,8.5
2022-10-11T21:35:50.145Z,8.5
2022-10-11T21:37:56.004Z,8.5
2022-10-11T21:40:01.788Z,8.5
2022-10-11T21:42:07.551Z,8.5
2022-10-11T21:44:13.364Z,8.5
2022-10-11T21:50:33.843Z,8.3
2022-10-11T21:53:00.175Z,8.3
2022-10-11T21:55:05.895Z,8.3
2022-10-11T21:57:11.699Z,8.2
2022-10-11T21:59:20.571Z,8.2
2022-10-11T22:01:26.450Z,8.2
2022-10-11T22:03:32.174Z,8.2
2022-10-11T22:05:37.963Z,8.1
2022-10-11T22:07:43.760Z,8
2022-10-11T22:09:49.572Z,8.1
2022-10-11T22:14:04.221Z,8
2022-10-11T22:16:10.031Z,8
2022-10-11T22:18:15.835Z,8
2022-10-11T22:20:21.603Z,8.1
2022-10-11T22:22:27.399Z,8.1
2022-10-11T22:24:33.176Z,8.1
2022-10-11T22:26:38.974Z,8
2022-10-11T22:28:47.977Z,8
2022-10-11T22:30:53.634Z,8
2022-10-11T22:32:59.409Z,8
2022-10-11T22:35:05.203Z,8
2022-10-11T22:37:11.003Z,8
2022-10-11T22:39:16.781Z,7.8
2022-10-11T22:41:22.578Z,7.8
2022-10-11T22:43:31.424Z,7.8
2022-10-11T22:45:37.186Z,7.7
2022-10-11T22:47:42.973Z,7.7
2022-10-11T22:48:47.408Z,7.6
2022-10-11T22:50:53.200Z,7.6
2022-10-11T22:52:58.995Z,7.6
2022-10-11T22:55:04.779Z,7.7
2022-10-11T22:57:13.632Z,7.6
2022-10-11T22:59:19.402Z,7.7
2022-10-11T23:01:25.199Z,7.7
2022-10-11T23:03:31.093Z,7.7
2022-10-11T23:05:36.765Z,7.6
2022-10-11T23:07:42.552Z,7.6
2022-10-11T23:09:48.338Z,7.6
2022-10-11T23:11:57.210Z,7.5
2022-10-11T23:14:02.976Z,7.5
2022-10-11T23:16:08.728Z,7.5
2022-10-11T23:22:26.076Z,7.5
2022-10-11T23:24:31.823Z,7.5
2022-10-11T23:26:40.692Z,7.4
2022-10-11T23:28:46.529Z,7.4
2022-10-11T23:32:58.028Z,7.4
2022-10-11T23:35:03.820Z,7.4
2022-10-11T23:37:09.591Z,7.4
2022-10-11T23:39:15.372Z,7.3
2022-10-11T23:41:24.238Z,7.3
2022-10-11T23:43:30.022Z,7.3
2022-10-11T23:45:35.805Z,7.3
2022-10-11T23:46:40.228Z,7.3
2022-10-11T23:50:51.783Z,7.4
2022-10-11T23:52:57.547Z,7.4
2022-10-11T23:55:06.438Z,7.3
2022-10-11T23:59:17.987Z,7.3
